sensor_id;sensor_type;location;lat;lon;timestamp;P1;durP1;ratioP1;P2;durP2;ratioP2
47329;SDS011;33060;50.178;7.570;2024-03-02T00:00:50;2.17;;;0.77;;
47329;SDS011;33060;50.178;7.570;2024-03-02T00:03:18;2.00;;;0.63;;
47329;SDS011;33060;50.178;7.570;2024-03-02T00:05:51;3.47;;;0.73;;
47329;SDS011;33060;50.178;7.570;2024-03-02T00:08:27;2.00;;;0.70;;
47329;SDS011;33060;50.178;7.570;2024-03-02T00:10:59;2.53;;;0.75;;
47329;SDS011;33060;50.178;7.570;2024-03-02T00:13:27;2.08;;;0.88;;
47329;SDS011;33060;50.178;7.570;2024-03-02T00:15:56;2.05;;;0.75;;
47329;SDS011;33060;50.178;7.570;2024-03-02T00:18:33;2.47;;;1.13;;
47329;SDS011;33060;50.178;7.570;2024-03-02T00:21:01;1.90;;;0.65;;
47329;SDS011;33060;50.178;7.570;2024-03-02T00:23:30;2.85;;;0.52;;
47329;SDS011;33060;50.178;7.570;2024-03-02T00:25:58;2.10;;;0.60;;
47329;SDS011;33060;50.178;7.570;2024-03-02T00:28:27;2.20;;;0.90;;
47329;SDS011;33060;50.178;7.570;2024-03-02T00:31:02;3.08;;;0.63;;
47329;SDS011;33060;50.178;7.570;2024-03-02T00:36:09;2.00;;;0.50;;
47329;SDS011;33060;50.178;7.570;2024-03-02T00:38:46;2.22;;;1.10;;
47329;SDS011;33060;50.178;7.570;2024-03-02T00:41:19;3.72;;;0.77;;
47329;SDS011;33060;50.178;7.570;2024-03-02T00:43:59;2.40;;;0.85;;
47329;SDS011;33060;50.178;7.570;2024-03-02T00:46:28;3.67;;;0.82;;
47329;SDS011;33060;50.178;7.570;2024-03-02T00:48:57;2.25;;;0.70;;
47329;SDS011;33060;50.178;7.570;2024-03-02T00:51:27;2.70;;;1.05;;
47329;SDS011;33060;50.178;7.570;2024-03-02T00:54:01;2.60;;;1.23;;
47329;SDS011;33060;50.178;7.570;2024-03-02T00:56:31;3.13;;;0.70;;
47329;SDS011;33060;50.178;7.570;2024-03-02T00:58:59;2.22;;;0.68;;
47329;SDS011;33060;50.178;7.570;2024-03-02T01:01:25;2.85;;;0.93;;
47329;SDS011;33060;50.178;7.570;2024-03-02T01:03:52;2.80;;;1.02;;
47329;SDS011;33060;50.178;7.570;2024-03-02T01:06:19;2.75;;;0.85;;
47329;SDS011;33060;50.178;7.570;2024-03-02T01:08:46;4.63;;;1.13;;
47329;SDS011;33060;50.178;7.570;2024-03-02T01:11:17;4.53;;;1.42;;
47329;SDS011;33060;50.178;7.570;2024-03-02T01:13:45;3.08;;;1.30;;
47329;SDS011;33060;50.178;7.570;2024-03-02T01:16:12;3.70;;;1.42;;
47329;SDS011;33060;50.178;7.570;2024-03-02T01:18:39;3.78;;;1.55;;
47329;SDS011;33060;50.178;7.570;2024-03-02T01:21:06;3.78;;;1.52;;
47329;SDS011;33060;50.178;7.570;2024-03-02T01:26:00;4.68;;;2.00;;
47329;SDS011;33060;50.178;7.570;2024-03-02T01:28:26;3.15;;;1.73;;
47329;SDS011;33060;50.178;7.570;2024-03-02T01:30:54;3.60;;;1.85;;
47329;SDS011;33060;50.178;7.570;2024-03-02T01:33:20;4.18;;;1.88;;
47329;SDS011;33060;50.178;7.570;2024-03-02T01:38:14;4.40;;;2.00;;
47329;SDS011;33060;50.178;7.570;2024-03-02T01:40:41;4.68;;;2.03;;
47329;SDS011;33060;50.178;7.570;2024-03-02T01:43:08;4.43;;;2.20;;
47329;SDS011;33060;50.178;7.570;2024-03-02T01:45:35;3.88;;;2.00;;
47329;SDS011;33060;50.178;7.570;2024-03-02T01:48:04;4.25;;;2.20;;
47329;SDS011;33060;50.178;7.570;2024-03-02T01:50:33;4.95;;;2.22;;
47329;SDS011;33060;50.178;7.570;2024-03-02T01:53:00;4.30;;;2.00;;
47329;SDS011;33060;50.178;7.570;2024-03-02T01:55:29;4.65;;;2.22;;
47329;SDS011;33060;50.178;7.570;2024-03-02T01:57:57;4.53;;;2.53;;
47329;SDS011;33060;50.178;7.570;2024-03-02T02:00:24;4.70;;;1.88;;
47329;SDS011;33060;50.178;7.570;2024-03-02T02:02:53;3.88;;;2.10;;
47329;SDS011;33060;50.178;7.570;2024-03-02T02:05:21;3.42;;;1.90;;
47329;SDS011;33060;50.178;7.570;2024-03-02T02:07:48;6.72;;;2.08;;
47329;SDS011;33060;50.178;7.570;2024-03-02T02:10:15;3.30;;;1.67;;
47329;SDS011;33060;50.178;7.570;2024-03-02T02:15:25;5.30;;;1.92;;
47329;SDS011;33060;50.178;7.570;2024-03-02T02:17:54;4.05;;;1.70;;
47329;SDS011;33060;50.178;7.570;2024-03-02T02:20:22;3.83;;;1.83;;
47329;SDS011;33060;50.178;7.570;2024-03-02T02:25:28;4.05;;;1.67;;
47329;SDS011;33060;50.178;7.570;2024-03-02T02:27:56;3.78;;;1.63;;
47329;SDS011;33060;50.178;7.570;2024-03-02T02:30:25;3.50;;;1.65;;
47329;SDS011;33060;50.178;7.570;2024-03-02T02:32:56;3.95;;;2.08;;
47329;SDS011;33060;50.178;7.570;2024-03-02T02:35:24;3.85;;;1.83;;
47329;SDS011;33060;50.178;7.570;2024-03-02T02:40:19;5.80;;;2.40;;
47329;SDS011;33060;50.178;7.570;2024-03-02T02:42:46;4.25;;;2.05;;
47329;SDS011;33060;50.178;7.570;2024-03-02T02:45:13;4.47;;;2.17;;
47329;SDS011;33060;50.178;7.570;2024-03-02T02:47:41;4.00;;;2.25;;
47329;SDS011;33060;50.178;7.570;2024-03-02T02:50:09;4.85;;;2.13;;
47329;SDS011;33060;50.178;7.570;2024-03-02T02:52:38;4.10;;;1.85;;
47329;SDS011;33060;50.178;7.570;2024-03-02T02:55:07;4.22;;;1.98;;
47329;SDS011;33060;50.178;7.570;2024-03-02T02:57:35;5.03;;;2.15;;
47329;SDS011;33060;50.178;7.570;2024-03-02T03:00:22;5.03;;;2.13;;
47329;SDS011;33060;50.178;7.570;2024-03-02T03:02:49;3.70;;;1.88;;
47329;SDS011;33060;50.178;7.570;2024-03-02T03:05:17;4.20;;;2.15;;
47329;SDS011;33060;50.178;7.570;2024-03-02T03:07:44;4.70;;;2.25;;
47329;SDS011;33060;50.178;7.570;2024-03-02T03:10:11;5.50;;;2.25;;
47329;SDS011;33060;50.178;7.570;2024-03-02T03:12:40;6.28;;;2.58;;
47329;SDS011;33060;50.178;7.570;2024-03-02T03:15:08;5.72;;;1.98;;
47329;SDS011;33060;50.178;7.570;2024-03-02T03:17:36;4.63;;;2.20;;
47329;SDS011;33060;50.178;7.570;2024-03-02T03:20:04;5.05;;;2.03;;
47329;SDS011;33060;50.178;7.570;2024-03-02T03:22:32;6.45;;;2.92;;
47329;SDS011;33060;50.178;7.570;2024-03-02T03:24:59;5.20;;;2.60;;
47329;SDS011;33060;50.178;7.570;2024-03-02T03:27:26;6.95;;;2.92;;
47329;SDS011;33060;50.178;7.570;2024-03-02T03:29:53;5.40;;;2.42;;
47329;SDS011;33060;50.178;7.570;2024-03-02T03:32:20;4.43;;;2.05;;
47329;SDS011;33060;50.178;7.570;2024-03-02T03:34:48;6.00;;;2.63;;
47329;SDS011;33060;50.178;7.570;2024-03-02T03:37:15;4.55;;;2.25;;
47329;SDS011;33060;50.178;7.570;2024-03-02T03:39:41;5.47;;;2.95;;
47329;SDS011;33060;50.178;7.570;2024-03-02T03:42:08;5.13;;;1.95;;
47329;SDS011;33060;50.178;7.570;2024-03-02T03:44:35;4.00;;;1.85;;
47329;SDS011;33060;50.178;7.570;2024-03-02T03:47:02;4.70;;;2.25;;
47329;SDS011;33060;50.178;7.570;2024-03-02T03:49:29;4.75;;;2.50;;
47329;SDS011;33060;50.178;7.570;2024-03-02T03:51:55;4.60;;;2.10;;
47329;SDS011;33060;50.178;7.570;2024-03-02T03:54:22;4.13;;;2.28;;
47329;SDS011;33060;50.178;7.570;2024-03-02T03:56:49;4.63;;;2.17;;
47329;SDS011;33060;50.178;7.570;2024-03-02T03:59:15;4.05;;;2.00;;
47329;SDS011;33060;50.178;7.570;2024-03-02T04:04:09;5.90;;;1.95;;
47329;SDS011;33060;50.178;7.570;2024-03-02T04:06:36;4.05;;;1.52;;
47329;SDS011;33060;50.178;7.570;2024-03-02T04:09:03;4.55;;;1.75;;
47329;SDS011;33060;50.178;7.570;2024-03-02T04:11:30;4.00;;;1.88;;
47329;SDS011;33060;50.178;7.570;2024-03-02T04:13:57;3.95;;;1.83;;
47329;SDS011;33060;50.178;7.570;2024-03-02T04:16:24;3.03;;;1.23;;
47329;SDS011;33060;50.178;7.570;2024-03-02T04:18:51;4.10;;;1.83;;
47329;SDS011;33060;50.178;7.570;2024-03-02T04:23:44;3.45;;;1.60;;
47329;SDS011;33060;50.178;7.570;2024-03-02T04:26:11;3.28;;;1.27;;
47329;SDS011;33060;50.178;7.570;2024-03-02T04:28:38;3.40;;;1.55;;
47329;SDS011;33060;50.178;7.570;2024-03-02T04:31:04;3.45;;;1.48;;
47329;SDS011;33060;50.178;7.570;2024-03-02T04:33:31;3.10;;;1.52;;
47329;SDS011;33060;50.178;7.570;2024-03-02T04:38:24;4.00;;;1.17;;
47329;SDS011;33060;50.178;7.570;2024-03-02T04:40:51;5.05;;;1.30;;
47329;SDS011;33060;50.178;7.570;2024-03-02T04:43:18;4.00;;;1.50;;
47329;SDS011;33060;50.178;7.570;2024-03-02T04:45:45;2.47;;;1.13;;
47329;SDS011;33060;50.178;7.570;2024-03-02T04:50:40;2.60;;;1.10;;
47329;SDS011;33060;50.178;7.570;2024-03-02T04:53:07;2.30;;;0.73;;
47329;SDS011;33060;50.178;7.570;2024-03-02T04:55:34;3.08;;;1.08;;
47329;SDS011;33060;50.178;7.570;2024-03-02T04:58:01;3.00;;;0.95;;
47329;SDS011;33060;50.178;7.570;2024-03-02T05:00:27;3.45;;;1.13;;
47329;SDS011;33060;50.178;7.570;2024-03-02T05:02:54;2.58;;;0.73;;
47329;SDS011;33060;50.178;7.570;2024-03-02T05:05:21;3.47;;;0.77;;
47329;SDS011;33060;50.178;7.570;2024-03-02T05:07:47;2.40;;;0.93;;
47329;SDS011;33060;50.178;7.570;2024-03-02T05:10:14;2.67;;;0.80;;
47329;SDS011;33060;50.178;7.570;2024-03-02T05:12:41;3.67;;;1.52;;
47329;SDS011;33060;50.178;7.570;2024-03-02T05:15:09;2.13;;;0.88;;
47329;SDS011;33060;50.178;7.570;2024-03-02T05:17:40;1.77;;;0.65;;
47329;SDS011;33060;50.178;7.570;2024-03-02T05:20:10;2.00;;;0.68;;
47329;SDS011;33060;50.178;7.570;2024-03-02T05:22:37;2.75;;;0.95;;
47329;SDS011;33060;50.178;7.570;2024-03-02T05:25:04;2.70;;;1.27;;
47329;SDS011;33060;50.178;7.570;2024-03-02T05:27:31;2.08;;;1.00;;
47329;SDS011;33060;50.178;7.570;2024-03-02T05:29:59;3.08;;;0.73;;
47329;SDS011;33060;50.178;7.570;2024-03-02T05:32:26;4.18;;;1.52;;
47329;SDS011;33060;50.178;7.570;2024-03-02T05:34:53;2.90;;;1.25;;
47329;SDS011;33060;50.178;7.570;2024-03-02T05:37:21;4.53;;;1.80;;
47329;SDS011;33060;50.178;7.570;2024-03-02T05:39:48;5.70;;;2.75;;
47329;SDS011;33060;50.178;7.570;2024-03-02T05:44:43;3.45;;;1.70;;
47329;SDS011;33060;50.178;7.570;2024-03-02T05:47:10;3.90;;;1.30;;
47329;SDS011;33060;50.178;7.570;2024-03-02T05:49:36;3.25;;;1.02;;
47329;SDS011;33060;50.178;7.570;2024-03-02T05:52:03;2.63;;;0.98;;
47329;SDS011;33060;50.178;7.570;2024-03-02T05:54:30;2.70;;;1.00;;
47329;SDS011;33060;50.178;7.570;2024-03-02T05:56:56;3.60;;;1.67;;
47329;SDS011;33060;50.178;7.570;2024-03-02T05:59:23;3.75;;;1.63;;
47329;SDS011;33060;50.178;7.570;2024-03-02T06:01:50;4.53;;;1.33;;
47329;SDS011;33060;50.178;7.570;2024-03-02T06:04:19;5.25;;;2.20;;
47329;SDS011;33060;50.178;7.570;2024-03-02T06:06:46;2.40;;;1.00;;
47329;SDS011;33060;50.178;7.570;2024-03-02T06:09:13;3.72;;;1.17;;
47329;SDS011;33060;50.178;7.570;2024-03-02T06:11:40;2.50;;;1.10;;
47329;SDS011;33060;50.178;7.570;2024-03-02T06:14:08;3.08;;;1.05;;
47329;SDS011;33060;50.178;7.570;2024-03-02T06:16:35;2.78;;;1.35;;
47329;SDS011;33060;50.178;7.570;2024-03-02T06:19:02;2.95;;;1.38;;
47329;SDS011;33060;50.178;7.570;2024-03-02T06:21:29;4.75;;;1.90;;
47329;SDS011;33060;50.178;7.570;2024-03-02T06:23:56;4.03;;;2.10;;
47329;SDS011;33060;50.178;7.570;2024-03-02T06:26:23;4.47;;;1.88;;
47329;SDS011;33060;50.178;7.570;2024-03-02T06:28:51;5.63;;;2.03;;
47329;SDS011;33060;50.178;7.570;2024-03-02T06:31:18;5.35;;;1.80;;
47329;SDS011;33060;50.178;7.570;2024-03-02T06:33:45;5.38;;;2.38;;
47329;SDS011;33060;50.178;7.570;2024-03-02T06:36:12;5.68;;;2.30;;
47329;SDS011;33060;50.178;7.570;2024-03-02T06:38:39;6.55;;;2.13;;
47329;SDS011;33060;50.178;7.570;2024-03-02T06:41:09;5.43;;;2.53;;
47329;SDS011;33060;50.178;7.570;2024-03-02T06:43:36;5.70;;;2.38;;
47329;SDS011;33060;50.178;7.570;2024-03-02T06:46:02;5.43;;;2.50;;
47329;SDS011;33060;50.178;7.570;2024-03-02T06:48:29;5.85;;;3.05;;
47329;SDS011;33060;50.178;7.570;2024-03-02T06:50:57;8.38;;;2.75;;
47329;SDS011;33060;50.178;7.570;2024-03-02T06:53:24;6.43;;;3.17;;
47329;SDS011;33060;50.178;7.570;2024-03-02T06:55:51;5.82;;;2.60;;
47329;SDS011;33060;50.178;7.570;2024-03-02T06:58:18;5.10;;;2.45;;
47329;SDS011;33060;50.178;7.570;2024-03-02T07:00:45;6.63;;;2.42;;
47329;SDS011;33060;50.178;7.570;2024-03-02T07:03:12;7.03;;;2.50;;
47329;SDS011;33060;50.178;7.570;2024-03-02T07:05:39;5.13;;;2.53;;
47329;SDS011;33060;50.178;7.570;2024-03-02T07:10:32;5.93;;;3.17;;
47329;SDS011;33060;50.178;7.570;2024-03-02T07:12:59;5.55;;;2.28;;
47329;SDS011;33060;50.178;7.570;2024-03-02T07:15:26;4.97;;;2.45;;
47329;SDS011;33060;50.178;7.570;2024-03-02T07:17:53;5.65;;;2.60;;
47329;SDS011;33060;50.178;7.570;2024-03-02T07:22:47;4.45;;;2.47;;
47329;SDS011;33060;50.178;7.570;2024-03-02T07:25:13;5.80;;;2.40;;
47329;SDS011;33060;50.178;7.570;2024-03-02T07:27:43;3.88;;;2.08;;
47329;SDS011;33060;50.178;7.570;2024-03-02T07:30:13;6.03;;;2.60;;
47329;SDS011;33060;50.178;7.570;2024-03-02T07:32:40;6.80;;;2.75;;
47329;SDS011;33060;50.178;7.570;2024-03-02T07:35:08;6.85;;;3.28;;
47329;SDS011;33060;50.178;7.570;2024-03-02T07:37:35;8.35;;;4.80;;
47329;SDS011;33060;50.178;7.570;2024-03-02T07:40:02;7.82;;;4.05;;
47329;SDS011;33060;50.178;7.570;2024-03-02T07:42:29;8.10;;;3.00;;
47329;SDS011;33060;50.178;7.570;2024-03-02T07:44:56;4.32;;;1.80;;
47329;SDS011;33060;50.178;7.570;2024-03-02T07:47:22;4.75;;;2.10;;
47329;SDS011;33060;50.178;7.570;2024-03-02T07:52:16;4.20;;;1.63;;
47329;SDS011;33060;50.178;7.570;2024-03-02T07:54:43;4.65;;;1.77;;
47329;SDS011;33060;50.178;7.570;2024-03-02T07:57:10;4.43;;;2.00;;
47329;SDS011;33060;50.178;7.570;2024-03-02T07:59:37;4.13;;;2.05;;
47329;SDS011;33060;50.178;7.570;2024-03-02T08:02:04;4.68;;;1.77;;
47329;SDS011;33060;50.178;7.570;2024-03-02T08:04:31;5.35;;;1.95;;
47329;SDS011;33060;50.178;7.570;2024-03-02T08:06:58;3.67;;;1.38;;
47329;SDS011;33060;50.178;7.570;2024-03-02T08:09:25;4.20;;;1.48;;
47329;SDS011;33060;50.178;7.570;2024-03-02T08:11:52;4.50;;;1.52;;
47329;SDS011;33060;50.178;7.570;2024-03-02T08:14:19;6.05;;;1.83;;
47329;SDS011;33060;50.178;7.570;2024-03-02T08:19:12;2.83;;;1.05;;
47329;SDS011;33060;50.178;7.570;2024-03-02T08:21:39;5.25;;;1.88;;
47329;SDS011;33060;50.178;7.570;2024-03-02T08:24:06;4.78;;;1.70;;
47329;SDS011;33060;50.178;7.570;2024-03-02T08:26:33;3.42;;;1.23;;
47329;SDS011;33060;50.178;7.570;2024-03-02T08:29:00;3.72;;;1.25;;
47329;SDS011;33060;50.178;7.570;2024-03-02T08:31:30;4.32;;;1.38;;
47329;SDS011;33060;50.178;7.570;2024-03-02T08:33:57;5.05;;;1.02;;
47329;SDS011;33060;50.178;7.570;2024-03-02T08:36:24;3.13;;;1.15;;
47329;SDS011;33060;50.178;7.570;2024-03-02T08:38:50;2.88;;;1.15;;
47329;SDS011;33060;50.178;7.570;2024-03-02T08:41:17;2.88;;;1.25;;
47329;SDS011;33060;50.178;7.570;2024-03-02T08:43:44;4.22;;;1.48;;
47329;SDS011;33060;50.178;7.570;2024-03-02T08:46:11;4.40;;;1.25;;
47329;SDS011;33060;50.178;7.570;2024-03-02T08:51:04;2.80;;;1.15;;
47329;SDS011;33060;50.178;7.570;2024-03-02T08:53:34;3.70;;;1.15;;
47329;SDS011;33060;50.178;7.570;2024-03-02T08:56:00;5.05;;;1.02;;
47329;SDS011;33060;50.178;7.570;2024-03-02T08:58:28;3.03;;;1.05;;
47329;SDS011;33060;50.178;7.570;2024-03-02T09:00:55;6.97;;;1.45;;
47329;SDS011;33060;50.178;7.570;2024-03-02T09:05:49;2.83;;;1.00;;
47329;SDS011;33060;50.178;7.570;2024-03-02T09:08:15;2.55;;;1.30;;
47329;SDS011;33060;50.178;7.570;2024-03-02T09:10:42;3.25;;;1.25;;
47329;SDS011;33060;50.178;7.570;2024-03-02T09:13:10;3.15;;;1.65;;
47329;SDS011;33060;50.178;7.570;2024-03-02T09:15:36;2.83;;;1.17;;
47329;SDS011;33060;50.178;7.570;2024-03-02T09:18:06;4.15;;;1.50;;
47329;SDS011;33060;50.178;7.570;2024-03-02T09:20:33;3.35;;;1.30;;
47329;SDS011;33060;50.178;7.570;2024-03-02T09:23:00;3.80;;;1.63;;
47329;SDS011;33060;50.178;7.570;2024-03-02T09:25:27;3.50;;;1.42;;
47329;SDS011;33060;50.178;7.570;2024-03-02T09:27:54;3.03;;;1.70;;
47329;SDS011;33060;50.178;7.570;2024-03-02T09:30:20;3.65;;;1.48;;
47329;SDS011;33060;50.178;7.570;2024-03-02T09:32:47;3.60;;;1.65;;
47329;SDS011;33060;50.178;7.570;2024-03-02T09:35:16;3.75;;;1.67;;
47329;SDS011;33060;50.178;7.570;2024-03-02T09:40:09;3.95;;;1.83;;
47329;SDS011;33060;50.178;7.570;2024-03-02T09:42:36;4.47;;;1.75;;
47329;SDS011;33060;50.178;7.570;2024-03-02T09:45:03;4.40;;;1.92;;
47329;SDS011;33060;50.178;7.570;2024-03-02T09:47:31;4.65;;;1.85;;
47329;SDS011;33060;50.178;7.570;2024-03-02T09:49:58;3.10;;;1.65;;
47329;SDS011;33060;50.178;7.570;2024-03-02T09:52:25;4.70;;;1.92;;
47329;SDS011;33060;50.178;7.570;2024-03-02T09:54:52;3.45;;;1.85;;
47329;SDS011;33060;50.178;7.570;2024-03-02T09:57:19;3.95;;;1.83;;
47329;SDS011;33060;50.178;7.570;2024-03-02T10:02:12;3.25;;;1.52;;
47329;SDS011;33060;50.178;7.570;2024-03-02T10:04:39;2.83;;;1.63;;
47329;SDS011;33060;50.178;7.570;2024-03-02T10:07:09;4.90;;;1.65;;
47329;SDS011;33060;50.178;7.570;2024-03-02T10:09:38;4.20;;;2.03;;
47329;SDS011;33060;50.178;7.570;2024-03-02T10:12:05;2.58;;;1.17;;
47329;SDS011;33060;50.178;7.570;2024-03-02T10:14:34;2.97;;;1.75;;
47329;SDS011;33060;50.178;7.570;2024-03-02T10:17:01;3.35;;;1.83;;
47329;SDS011;33060;50.178;7.570;2024-03-02T10:19:30;3.92;;;1.55;;
47329;SDS011;33060;50.178;7.570;2024-03-02T10:22:01;3.13;;;1.35;;
47329;SDS011;33060;50.178;7.570;2024-03-02T10:24:34;7.07;;;1.77;;
47329;SDS011;33060;50.178;7.570;2024-03-02T10:27:14;4.47;;;1.50;;
47329;SDS011;33060;50.178;7.570;2024-03-02T10:29:49;2.95;;;1.83;;
47329;SDS011;33060;50.178;7.570;2024-03-02T10:32:16;3.05;;;1.50;;
47329;SDS011;33060;50.178;7.570;2024-03-02T10:34:46;3.13;;;1.48;;
47329;SDS011;33060;50.178;7.570;2024-03-02T10:37:16;5.85;;;1.65;;
47329;SDS011;33060;50.178;7.570;2024-03-02T10:39:45;2.75;;;1.20;;
47329;SDS011;33060;50.178;7.570;2024-03-02T10:42:13;3.45;;;1.33;;
47329;SDS011;33060;50.178;7.570;2024-03-02T10:44:41;2.55;;;0.93;;
47329;SDS011;33060;50.178;7.570;2024-03-02T10:47:09;2.33;;;1.13;;
47329;SDS011;33060;50.178;7.570;2024-03-02T10:49:38;4.03;;;1.13;;
47329;SDS011;33060;50.178;7.570;2024-03-02T10:52:10;5.20;;;1.17;;
47329;SDS011;33060;50.178;7.570;2024-03-02T10:54:37;3.65;;;1.25;;
47329;SDS011;33060;50.178;7.570;2024-03-02T10:57:07;3.55;;;1.17;;
47329;SDS011;33060;50.178;7.570;2024-03-02T10:59:37;2.22;;;1.05;;
47329;SDS011;33060;50.178;7.570;2024-03-02T11:02:11;3.50;;;0.75;;
47329;SDS011;33060;50.178;7.570;2024-03-02T11:04:40;4.53;;;0.93;;
47329;SDS011;33060;50.178;7.570;2024-03-02T11:07:09;2.17;;;0.85;;
47329;SDS011;33060;50.178;7.570;2024-03-02T11:09:59;3.30;;;1.10;;
47329;SDS011;33060;50.178;7.570;2024-03-02T11:12:29;3.60;;;0.80;;
47329;SDS011;33060;50.178;7.570;2024-03-02T11:14:58;3.08;;;0.80;;
47329;SDS011;33060;50.178;7.570;2024-03-02T11:17:26;3.40;;;1.05;;
47329;SDS011;33060;50.178;7.570;2024-03-02T11:19:54;3.35;;;1.08;;
47329;SDS011;33060;50.178;7.570;2024-03-02T11:22:21;2.38;;;0.90;;
47329;SDS011;33060;50.178;7.570;2024-03-02T11:24:48;3.10;;;1.10;;
47329;SDS011;33060;50.178;7.570;2024-03-02T11:27:59;4.60;;;0.73;;
47329;SDS011;33060;50.178;7.570;2024-03-02T11:33:04;2.58;;;0.93;;
47329;SDS011;33060;50.178;7.570;2024-03-02T11:35:41;3.17;;;1.02;;
47329;SDS011;33060;50.178;7.570;2024-03-02T11:38:15;2.65;;;0.90;;
47329;SDS011;33060;50.178;7.570;2024-03-02T11:40:42;3.00;;;0.98;;
47329;SDS011;33060;50.178;7.570;2024-03-02T11:43:09;2.38;;;0.98;;
47329;SDS011;33060;50.178;7.570;2024-03-02T11:45:37;2.10;;;0.65;;
47329;SDS011;33060;50.178;7.570;2024-03-02T11:48:08;3.47;;;1.15;;
47329;SDS011;33060;50.178;7.570;2024-03-02T11:50:42;2.72;;;1.50;;
47329;SDS011;33060;50.178;7.570;2024-03-02T11:53:15;2.17;;;1.02;;
47329;SDS011;33060;50.178;7.570;2024-03-02T11:55:43;2.63;;;0.88;;
47329;SDS011;33060;50.178;7.570;2024-03-02T11:58:13;3.22;;;1.10;;
47329;SDS011;33060;50.178;7.570;2024-03-02T12:00:41;1.90;;;0.73;;
47329;SDS011;33060;50.178;7.570;2024-03-02T12:03:08;2.08;;;0.75;;
47329;SDS011;33060;50.178;7.570;2024-03-02T12:05:38;4.35;;;1.30;;
47329;SDS011;33060;50.178;7.570;2024-03-02T12:08:06;5.65;;;1.60;;
47329;SDS011;33060;50.178;7.570;2024-03-02T12:10:34;2.85;;;1.30;;
47329;SDS011;33060;50.178;7.570;2024-03-02T12:13:03;4.82;;;1.88;;
47329;SDS011;33060;50.178;7.570;2024-03-02T12:15:33;2.83;;;1.05;;
47329;SDS011;33060;50.178;7.570;2024-03-02T12:18:03;4.03;;;1.05;;
47329;SDS011;33060;50.178;7.570;2024-03-02T12:20:31;3.30;;;1.20;;
47329;SDS011;33060;50.178;7.570;2024-03-02T12:22:59;2.78;;;1.02;;
47329;SDS011;33060;50.178;7.570;2024-03-02T12:25:28;3.03;;;1.10;;
47329;SDS011;33060;50.178;7.570;2024-03-02T12:27:59;2.55;;;1.08;;
47329;SDS011;33060;50.178;7.570;2024-03-02T12:30:29;2.00;;;0.68;;
47329;SDS011;33060;50.178;7.570;2024-03-02T12:32:57;3.25;;;1.10;;
47329;SDS011;33060;50.178;7.570;2024-03-02T12:35:24;3.63;;;1.17;;
47329;SDS011;33060;50.178;7.570;2024-03-02T12:37:52;3.90;;;1.48;;
47329;SDS011;33060;50.178;7.570;2024-03-02T12:40:20;2.08;;;0.93;;
47329;SDS011;33060;50.178;7.570;2024-03-02T12:42:49;2.60;;;0.82;;
47329;SDS011;33060;50.178;7.570;2024-03-02T12:45:17;2.13;;;0.82;;
47329;SDS011;33060;50.178;7.570;2024-03-02T12:47:51;2.33;;;1.05;;
47329;SDS011;33060;50.178;7.570;2024-03-02T12:50:19;2.85;;;1.27;;
47329;SDS011;33060;50.178;7.570;2024-03-02T12:52:52;3.47;;;1.60;;
47329;SDS011;33060;50.178;7.570;2024-03-02T12:55:20;4.63;;;2.03;;
47329;SDS011;33060;50.178;7.570;2024-03-02T12:57:51;6.85;;;3.40;;
47329;SDS011;33060;50.178;7.570;2024-03-02T13:00:19;4.40;;;2.53;;
47329;SDS011;33060;50.178;7.570;2024-03-02T13:02:50;4.40;;;1.73;;
47329;SDS011;33060;50.178;7.570;2024-03-02T13:05:18;4.65;;;1.70;;
47329;SDS011;33060;50.178;7.570;2024-03-02T13:07:47;3.90;;;2.10;;
47329;SDS011;33060;50.178;7.570;2024-03-02T13:10:15;7.93;;;1.92;;
47329;SDS011;33060;50.178;7.570;2024-03-02T13:12:42;6.30;;;2.22;;
47329;SDS011;33060;50.178;7.570;2024-03-02T13:15:09;2.92;;;1.52;;
47329;SDS011;33060;50.178;7.570;2024-03-02T13:17:41;3.15;;;1.70;;
47329;SDS011;33060;50.178;7.570;2024-03-02T13:22:37;5.05;;;2.85;;
47329;SDS011;33060;50.178;7.570;2024-03-02T13:25:04;5.55;;;2.55;;
47329;SDS011;33060;50.178;7.570;2024-03-02T13:27:33;6.20;;;3.03;;
47329;SDS011;33060;50.178;7.570;2024-03-02T13:30:00;4.35;;;3.22;;
47329;SDS011;33060;50.178;7.570;2024-03-02T13:32:27;13.98;;;9.98;;
47329;SDS011;33060;50.178;7.570;2024-03-02T13:37:21;9.10;;;6.57;;
47329;SDS011;33060;50.178;7.570;2024-03-02T13:39:48;8.30;;;6.00;;
47329;SDS011;33060;50.178;7.570;2024-03-02T13:42:15;7.05;;;4.88;;
47329;SDS011;33060;50.178;7.570;2024-03-02T13:44:45;6.22;;;4.43;;
47329;SDS011;33060;50.178;7.570;2024-03-02T13:47:14;7.65;;;5.03;;
47329;SDS011;33060;50.178;7.570;2024-03-02T13:49:42;5.93;;;3.10;;
47329;SDS011;33060;50.178;7.570;2024-03-02T13:52:14;6.30;;;2.92;;
47329;SDS011;33060;50.178;7.570;2024-03-02T13:54:41;6.00;;;3.45;;
47329;SDS011;33060;50.178;7.570;2024-03-02T13:57:11;20.63;;;14.00;;
47329;SDS011;33060;50.178;7.570;2024-03-02T13:59:39;13.57;;;9.18;;
47329;SDS011;33060;50.178;7.570;2024-03-02T14:02:07;6.95;;;4.82;;
47329;SDS011;33060;50.178;7.570;2024-03-02T14:04:35;17.48;;;13.43;;
47329;SDS011;33060;50.178;7.570;2024-03-02T14:07:02;12.15;;;7.45;;
47329;SDS011;33060;50.178;7.570;2024-03-02T14:09:29;14.27;;;10.40;;
47329;SDS011;33060;50.178;7.570;2024-03-02T14:11:57;15.30;;;12.07;;
47329;SDS011;33060;50.178;7.570;2024-03-02T14:14:24;12.90;;;8.57;;
47329;SDS011;33060;50.178;7.570;2024-03-02T14:16:51;14.90;;;11.60;;
47329;SDS011;33060;50.178;7.570;2024-03-02T14:19:18;8.15;;;5.70;;
47329;SDS011;33060;50.178;7.570;2024-03-02T14:21:44;7.63;;;4.47;;
47329;SDS011;33060;50.178;7.570;2024-03-02T14:24:12;7.63;;;5.00;;
47329;SDS011;33060;50.178;7.570;2024-03-02T14:29:05;8.57;;;5.13;;
47329;SDS011;33060;50.178;7.570;2024-03-02T14:33:59;6.95;;;4.20;;
47329;SDS011;33060;50.178;7.570;2024-03-02T14:36:27;8.18;;;5.13;;
47329;SDS011;33060;50.178;7.570;2024-03-02T14:38:54;8.18;;;5.07;;
47329;SDS011;33060;50.178;7.570;2024-03-02T14:41:22;10.50;;;6.25;;
47329;SDS011;33060;50.178;7.570;2024-03-02T14:43:51;23.38;;;13.02;;
47329;SDS011;33060;50.178;7.570;2024-03-02T14:46:18;8.60;;;4.90;;
47329;SDS011;33060;50.178;7.570;2024-03-02T14:48:45;15.45;;;10.27;;
47329;SDS011;33060;50.178;7.570;2024-03-02T14:51:13;13.25;;;7.72;;
47329;SDS011;33060;50.178;7.570;2024-03-02T14:53:40;6.95;;;4.63;;
47329;SDS011;33060;50.178;7.570;2024-03-02T14:56:08;7.32;;;4.63;;
47329;SDS011;33060;50.178;7.570;2024-03-02T14:58:35;7.50;;;4.40;;
47329;SDS011;33060;50.178;7.570;2024-03-02T15:01:04;7.97;;;5.30;;
47329;SDS011;33060;50.178;7.570;2024-03-02T15:03:35;6.32;;;4.28;;
47329;SDS011;33060;50.178;7.570;2024-03-02T15:06:02;5.60;;;3.90;;
47329;SDS011;33060;50.178;7.570;2024-03-02T15:08:30;7.43;;;4.28;;
47329;SDS011;33060;50.178;7.570;2024-03-02T15:10:57;7.47;;;4.13;;
47329;SDS011;33060;50.178;7.570;2024-03-02T15:13:26;8.80;;;5.05;;
47329;SDS011;33060;50.178;7.570;2024-03-02T15:15:53;6.50;;;3.92;;
47329;SDS011;33060;50.178;7.570;2024-03-02T15:18:19;6.55;;;3.60;;
47329;SDS011;33060;50.178;7.570;2024-03-02T15:20:46;7.80;;;5.00;;
47329;SDS011;33060;50.178;7.570;2024-03-02T15:25:40;6.70;;;2.88;;
47329;SDS011;33060;50.178;7.570;2024-03-02T15:28:07;6.88;;;3.00;;
47329;SDS011;33060;50.178;7.570;2024-03-02T15:30:34;6.75;;;4.03;;
47329;SDS011;33060;50.178;7.570;2024-03-02T15:33:01;6.05;;;3.17;;
47329;SDS011;33060;50.178;7.570;2024-03-02T15:35:28;7.43;;;3.63;;
47329;SDS011;33060;50.178;7.570;2024-03-02T15:40:21;6.75;;;3.70;;
47329;SDS011;33060;50.178;7.570;2024-03-02T15:45:15;4.78;;;2.88;;
47329;SDS011;33060;50.178;7.570;2024-03-02T15:47:41;5.18;;;2.75;;
47329;SDS011;33060;50.178;7.570;2024-03-02T15:50:08;5.30;;;2.60;;
47329;SDS011;33060;50.178;7.570;2024-03-02T15:52:35;5.90;;;2.60;;
47329;SDS011;33060;50.178;7.570;2024-03-02T15:55:02;4.20;;;2.75;;
47329;SDS011;33060;50.178;7.570;2024-03-02T15:57:32;4.38;;;2.38;;
47329;SDS011;33060;50.178;7.570;2024-03-02T15:59:59;4.75;;;2.28;;